sensor_id;sensor_type;location;lat;lon;timestamp;P1;durP1;ratioP1;P2;durP2;ratioP2
43809;SDS011;29440;48.208;11.162;2023-04-22T00:00:56;1.52;;;1.00;;
43809;SDS011;29440;48.208;11.162;2023-04-22T00:03:22;1.27;;;0.70;;
43809;SDS011;29440;48.208;11.162;2023-04-22T00:05:48;1.98;;;0.65;;
43809;SDS011;29440;48.208;11.162;2023-04-22T00:08:13;2.15;;;0.50;;
43809;SDS011;29440;48.208;11.162;2023-04-22T00:10:39;1.00;;;0.70;;
43809;SDS011;29440;48.208;11.162;2023-04-22T00:13:05;1.08;;;0.50;;
43809;SDS011;29440;48.208;11.162;2023-04-22T00:15:30;2.00;;;0.50;;
43809;SDS011;29440;48.208;11.162;2023-04-22T00:17:57;1.10;;;0.60;;
43809;SDS011;29440;48.208;11.162;2023-04-22T00:20:23;1.10;;;0.60;;
43809;SDS011;29440;48.208;11.162;2023-04-22T00:22:49;2.80;;;0.70;;
43809;SDS011;29440;48.208;11.162;2023-04-22T00:25:15;1.63;;;0.60;;
43809;SDS011;29440;48.208;11.162;2023-04-22T00:27:41;0.95;;;0.50;;
43809;SDS011;29440;48.208;11.162;2023-04-22T00:30:08;1.13;;;0.50;;
43809;SDS011;29440;48.208;11.162;2023-04-22T00:32:34;1.00;;;0.60;;
43809;SDS011;29440;48.208;11.162;2023-04-22T00:35:00;2.85;;;0.45;;
43809;SDS011;29440;48.208;11.162;2023-04-22T00:37:25;1.88;;;0.60;;
43809;SDS011;29440;48.208;11.162;2023-04-22T00:39:52;1.45;;;0.50;;
43809;SDS011;29440;48.208;11.162;2023-04-22T00:42:17;4.05;;;0.52;;
43809;SDS011;29440;48.208;11.162;2023-04-22T00:44:43;0.80;;;0.43;;
43809;SDS011;29440;48.208;11.162;2023-04-22T00:47:11;1.10;;;0.57;;
43809;SDS011;29440;48.208;11.162;2023-04-22T00:49:37;1.15;;;0.40;;
43809;SDS011;29440;48.208;11.162;2023-04-22T00:52:03;2.22;;;0.60;;
43809;SDS011;29440;48.208;11.162;2023-04-22T00:54:29;0.80;;;0.50;;
43809;SDS011;29440;48.208;11.162;2023-04-22T00:56:55;1.70;;;0.73;;
43809;SDS011;29440;48.208;11.162;2023-04-22T00:59:23;1.52;;;0.63;;
43809;SDS011;29440;48.208;11.162;2023-04-22T01:01:50;1.52;;;0.60;;
43809;SDS011;29440;48.208;11.162;2023-04-22T01:04:15;2.72;;;0.68;;
43809;SDS011;29440;48.208;11.162;2023-04-22T01:06:42;1.38;;;0.50;;
43809;SDS011;29440;48.208;11.162;2023-04-22T01:09:08;1.75;;;0.70;;
43809;SDS011;29440;48.208;11.162;2023-04-22T01:11:34;1.08;;;0.70;;
43809;SDS011;29440;48.208;11.162;2023-04-22T01:14:00;2.22;;;0.73;;
43809;SDS011;29440;48.208;11.162;2023-04-22T01:16:27;2.08;;;0.80;;
43809;SDS011;29440;48.208;11.162;2023-04-22T01:18:55;1.55;;;0.70;;
43809;SDS011;29440;48.208;11.162;2023-04-22T01:21:20;1.30;;;0.60;;
43809;SDS011;29440;48.208;11.162;2023-04-22T01:23:46;1.27;;;0.75;;
43809;SDS011;29440;48.208;11.162;2023-04-22T01:26:12;1.73;;;0.70;;
43809;SDS011;29440;48.208;11.162;2023-04-22T01:28:38;1.20;;;0.70;;
43809;SDS011;29440;48.208;11.162;2023-04-22T01:31:03;2.53;;;0.93;;
43809;SDS011;29440;48.208;11.162;2023-04-22T01:33:29;0.98;;;0.60;;
43809;SDS011;29440;48.208;11.162;2023-04-22T01:35:55;1.95;;;0.80;;
43809;SDS011;29440;48.208;11.162;2023-04-22T01:38:21;1.23;;;0.75;;
43809;SDS011;29440;48.208;11.162;2023-04-22T01:40:47;1.20;;;0.70;;
43809;SDS011;29440;48.208;11.162;2023-04-22T01:43:13;2.15;;;1.00;;
43809;SDS011;29440;48.208;11.162;2023-04-22T01:45:39;1.20;;;0.60;;
43809;SDS011;29440;48.208;11.162;2023-04-22T01:48:04;1.98;;;0.60;;
43809;SDS011;29440;48.208;11.162;2023-04-22T01:50:33;0.82;;;0.60;;
43809;SDS011;29440;48.208;11.162;2023-04-22T01:52:59;1.17;;;0.60;;
43809;SDS011;29440;48.208;11.162;2023-04-22T01:55:25;1.10;;;1.00;;
43809;SDS011;29440;48.208;11.162;2023-04-22T01:57:50;1.27;;;0.55;;
43809;SDS011;29440;48.208;11.162;2023-04-22T02:00:16;0.77;;;0.63;;
43809;SDS011;29440;48.208;11.162;2023-04-22T02:02:42;1.10;;;0.70;;
43809;SDS011;29440;48.208;11.162;2023-04-22T02:05:08;3.05;;;0.93;;
43809;SDS011;29440;48.208;11.162;2023-04-22T02:07:34;2.40;;;0.70;;
43809;SDS011;29440;48.208;11.162;2023-04-22T02:10:00;2.58;;;1.02;;
43809;SDS011;29440;48.208;11.162;2023-04-22T02:12:26;1.83;;;0.90;;
43809;SDS011;29440;48.208;11.162;2023-04-22T02:14:52;1.73;;;0.85;;
43809;SDS011;29440;48.208;11.162;2023-04-22T02:17:18;1.63;;;0.70;;
43809;SDS011;29440;48.208;11.162;2023-04-22T02:19:43;4.00;;;0.68;;
43809;SDS011;29440;48.208;11.162;2023-04-22T02:22:09;2.00;;;0.60;;
43809;SDS011;29440;48.208;11.162;2023-04-22T02:24:34;1.63;;;0.68;;
43809;SDS011;29440;48.208;11.162;2023-04-22T02:27:00;0.95;;;0.60;;
43809;SDS011;29440;48.208;11.162;2023-04-22T02:29:25;1.25;;;0.82;;
43809;SDS011;29440;48.208;11.162;2023-04-22T02:31:51;1.10;;;0.77;;
43809;SDS011;29440;48.208;11.162;2023-04-22T02:34:17;1.23;;;0.85;;
43809;SDS011;29440;48.208;11.162;2023-04-22T02:36:43;1.33;;;0.70;;
43809;SDS011;29440;48.208;11.162;2023-04-22T02:39:09;1.13;;;0.80;;
43809;SDS011;29440;48.208;11.162;2023-04-22T02:41:35;1.33;;;0.70;;
43809;SDS011;29440;48.208;11.162;2023-04-22T02:44:01;2.05;;;0.70;;
43809;SDS011;29440;48.208;11.162;2023-04-22T02:46:27;1.33;;;0.70;;
43809;SDS011;29440;48.208;11.162;2023-04-22T02:48:53;1.77;;;0.85;;
43809;SDS011;29440;48.208;11.162;2023-04-22T02:51:18;1.52;;;0.80;;
43809;SDS011;29440;48.208;11.162;2023-04-22T02:53:45;1.52;;;0.70;;
43809;SDS011;29440;48.208;11.162;2023-04-22T02:56:11;1.67;;;0.63;;
43809;SDS011;29440;48.208;11.162;2023-04-22T02:58:37;1.17;;;0.80;;
43809;SDS011;29440;48.208;11.162;2023-04-22T03:01:03;1.30;;;0.70;;
43809;SDS011;29440;48.208;11.162;2023-04-22T03:03:28;1.85;;;0.70;;
43809;SDS011;29440;48.208;11.162;2023-04-22T03:05:55;1.17;;;0.70;;
43809;SDS011;29440;48.208;11.162;2023-04-22T03:08:22;1.63;;;1.05;;
43809;SDS011;29440;48.208;11.162;2023-04-22T03:10:47;1.92;;;0.82;;
43809;SDS011;29440;48.208;11.162;2023-04-22T03:13:13;1.92;;;0.90;;
43809;SDS011;29440;48.208;11.162;2023-04-22T03:15:39;1.65;;;0.85;;
43809;SDS011;29440;48.208;11.162;2023-04-22T03:18:05;2.40;;;0.98;;
43809;SDS011;29440;48.208;11.162;2023-04-22T03:20:31;1.27;;;0.80;;
43809;SDS011;29440;48.208;11.162;2023-04-22T03:22:58;1.27;;;0.70;;
43809;SDS011;29440;48.208;11.162;2023-04-22T03:25:23;1.38;;;0.80;;
43809;SDS011;29440;48.208;11.162;2023-04-22T03:27:49;3.72;;;0.82;;
43809;SDS011;29440;48.208;11.162;2023-04-22T03:30:15;2.20;;;0.90;;
43809;SDS011;29440;48.208;11.162;2023-04-22T03:32:40;1.40;;;0.80;;
43809;SDS011;29440;48.208;11.162;2023-04-22T03:35:06;0.98;;;0.65;;
43809;SDS011;29440;48.208;11.162;2023-04-22T03:37:32;1.20;;;0.80;;
43809;SDS011;29440;48.208;11.162;2023-04-22T03:39:59;1.60;;;0.90;;
43809;SDS011;29440;48.208;11.162;2023-04-22T03:42:24;2.45;;;0.70;;
43809;SDS011;29440;48.208;11.162;2023-04-22T03:44:51;1.33;;;0.80;;
43809;SDS011;29440;48.208;11.162;2023-04-22T03:47:17;0.85;;;0.60;;
43809;SDS011;29440;48.208;11.162;2023-04-22T03:49:42;1.20;;;0.60;;
43809;SDS011;29440;48.208;11.162;2023-04-22T03:52:08;1.88;;;0.80;;
43809;SDS011;29440;48.208;11.162;2023-04-22T03:54:33;1.85;;;0.70;;
43809;SDS011;29440;48.208;11.162;2023-04-22T03:56:59;1.33;;;0.77;;
43809;SDS011;29440;48.208;11.162;2023-04-22T03:59:25;1.83;;;0.90;;
43809;SDS011;29440;48.208;11.162;2023-04-22T04:01:51;1.17;;;0.55;;
43809;SDS011;29440;48.208;11.162;2023-04-22T04:04:18;1.08;;;0.93;;
43809;SDS011;29440;48.208;11.162;2023-04-22T04:06:44;2.97;;;0.80;;
43809;SDS011;29440;48.208;11.162;2023-04-22T04:09:10;0.90;;;0.70;;
43809;SDS011;29440;48.208;11.162;2023-04-22T04:11:36;1.27;;;0.68;;
43809;SDS011;29440;48.208;11.162;2023-04-22T04:14:01;2.28;;;1.30;;
43809;SDS011;29440;48.208;11.162;2023-04-22T04:16:28;2.92;;;1.80;;
43809;SDS011;29440;48.208;11.162;2023-04-22T04:18:53;3.78;;;2.35;;
43809;SDS011;29440;48.208;11.162;2023-04-22T04:21:19;1.67;;;1.10;;
43809;SDS011;29440;48.208;11.162;2023-04-22T04:23:45;5.18;;;0.70;;
43809;SDS011;29440;48.208;11.162;2023-04-22T04:26:11;1.90;;;0.82;;
43809;SDS011;29440;48.208;11.162;2023-04-22T04:28:39;2.22;;;0.90;;
43809;SDS011;29440;48.208;11.162;2023-04-22T04:31:05;3.90;;;1.98;;
43809;SDS011;29440;48.208;11.162;2023-04-22T04:33:32;2.95;;;1.88;;
43809;SDS011;29440;48.208;11.162;2023-04-22T04:35:58;2.92;;;0.90;;
43809;SDS011;29440;48.208;11.162;2023-04-22T04:38:24;3.25;;;1.17;;
43809;SDS011;29440;48.208;11.162;2023-04-22T04:40:54;3.83;;;1.08;;
43809;SDS011;29440;48.208;11.162;2023-04-22T04:43:19;3.38;;;1.17;;
43809;SDS011;29440;48.208;11.162;2023-04-22T04:45:49;2.33;;;1.20;;
43809;SDS011;29440;48.208;11.162;2023-04-22T04:48:18;2.25;;;1.00;;
43809;SDS011;29440;48.208;11.162;2023-04-22T04:50:49;2.55;;;1.13;;
43809;SDS011;29440;48.208;11.162;2023-04-22T04:53:20;2.58;;;1.27;;
43809;SDS011;29440;48.208;11.162;2023-04-22T04:55:46;2.20;;;0.95;;
43809;SDS011;29440;48.208;11.162;2023-04-22T04:58:12;1.75;;;0.80;;
43809;SDS011;29440;48.208;11.162;2023-04-22T05:00:38;1.50;;;0.75;;
43809;SDS011;29440;48.208;11.162;2023-04-22T05:03:04;1.70;;;0.70;;
43809;SDS011;29440;48.208;11.162;2023-04-22T05:05:29;2.63;;;0.77;;
43809;SDS011;29440;48.208;11.162;2023-04-22T05:07:56;4.65;;;0.80;;
43809;SDS011;29440;48.208;11.162;2023-04-22T05:10:21;3.00;;;0.70;;
43809;SDS011;29440;48.208;11.162;2023-04-22T05:12:47;0.85;;;0.60;;
43809;SDS011;29440;48.208;11.162;2023-04-22T05:15:13;1.08;;;0.60;;
43809;SDS011;29440;48.208;11.162;2023-04-22T05:17:39;1.73;;;0.60;;
43809;SDS011;29440;48.208;11.162;2023-04-22T05:20:05;1.05;;;0.63;;
43809;SDS011;29440;48.208;11.162;2023-04-22T05:22:31;2.35;;;0.68;;
43809;SDS011;29440;48.208;11.162;2023-04-22T05:24:56;2.05;;;0.52;;
43809;SDS011;29440;48.208;11.162;2023-04-22T05:27:22;0.77;;;0.50;;
43809;SDS011;29440;48.208;11.162;2023-04-22T05:29:48;1.52;;;0.70;;
43809;SDS011;29440;48.208;11.162;2023-04-22T05:32:13;3.30;;;0.70;;
43809;SDS011;29440;48.208;11.162;2023-04-22T05:34:39;1.42;;;0.60;;
43809;SDS011;29440;48.208;11.162;2023-04-22T05:37:04;0.80;;;0.45;;
43809;SDS011;29440;48.208;11.162;2023-04-22T05:39:30;1.45;;;0.43;;
43809;SDS011;29440;48.208;11.162;2023-04-22T05:41:56;2.15;;;0.70;;
43809;SDS011;29440;48.208;11.162;2023-04-22T05:44:21;3.88;;;1.42;;
43809;SDS011;29440;48.208;11.162;2023-04-22T05:46:47;0.98;;;0.60;;
43809;SDS011;29440;48.208;11.162;2023-04-22T05:49:12;0.90;;;0.55;;
43809;SDS011;29440;48.208;11.162;2023-04-22T05:51:38;0.80;;;0.60;;
43809;SDS011;29440;48.208;11.162;2023-04-22T05:54:03;2.55;;;0.65;;
43809;SDS011;29440;48.208;11.162;2023-04-22T05:56:29;1.20;;;0.70;;
43809;SDS011;29440;48.208;11.162;2023-04-22T05:58:54;1.40;;;0.70;;
43809;SDS011;29440;48.208;11.162;2023-04-22T06:01:20;1.33;;;0.55;;
43809;SDS011;29440;48.208;11.162;2023-04-22T06:03:45;0.93;;;0.70;;
43809;SDS011;29440;48.208;11.162;2023-04-22T06:06:11;3.58;;;0.90;;
43809;SDS011;29440;48.208;11.162;2023-04-22T06:08:37;1.30;;;0.85;;
43809;SDS011;29440;48.208;11.162;2023-04-22T06:11:02;1.35;;;0.88;;
43809;SDS011;29440;48.208;11.162;2023-04-22T06:13:28;1.10;;;0.90;;
43809;SDS011;29440;48.208;11.162;2023-04-22T06:15:53;2.35;;;1.02;;
43809;SDS011;29440;48.208;11.162;2023-04-22T06:18:19;1.80;;;1.08;;
43809;SDS011;29440;48.208;11.162;2023-04-22T06:20:45;1.95;;;1.08;;
43809;SDS011;29440;48.208;11.162;2023-04-22T06:23:10;1.58;;;1.00;;
43809;SDS011;29440;48.208;11.162;2023-04-22T06:25:36;1.50;;;0.90;;
43809;SDS011;29440;48.208;11.162;2023-04-22T06:28:01;2.55;;;0.90;;
43809;SDS011;29440;48.208;11.162;2023-04-22T06:30:27;1.50;;;0.90;;
43809;SDS011;29440;48.208;11.162;2023-04-22T06:32:52;1.60;;;0.70;;
43809;SDS011;29440;48.208;11.162;2023-04-22T06:35:19;1.33;;;0.80;;
43809;SDS011;29440;48.208;11.162;2023-04-22T06:37:45;5.70;;;0.88;;
43809;SDS011;29440;48.208;11.162;2023-04-22T06:40:12;2.55;;;0.80;;
43809;SDS011;29440;48.208;11.162;2023-04-22T06:42:38;1.10;;;0.73;;
43809;SDS011;29440;48.208;11.162;2023-04-22T06:45:04;1.08;;;0.60;;
43809;SDS011;29440;48.208;11.162;2023-04-22T06:47:30;2.22;;;0.80;;
43809;SDS011;29440;48.208;11.162;2023-04-22T06:49:55;1.27;;;0.60;;
43809;SDS011;29440;48.208;11.162;2023-04-22T06:52:21;1.45;;;0.70;;
43809;SDS011;29440;48.208;11.162;2023-04-22T06:54:51;1.63;;;0.70;;
43809;SDS011;29440;48.208;11.162;2023-04-22T06:57:17;1.45;;;0.80;;
43809;SDS011;29440;48.208;11.162;2023-04-22T06:59:43;2.95;;;0.90;;
43809;SDS011;29440;48.208;11.162;2023-04-22T07:02:08;1.77;;;0.80;;
43809;SDS011;29440;48.208;11.162;2023-04-22T07:04:34;0.70;;;0.50;;
43809;SDS011;29440;48.208;11.162;2023-04-22T07:07:00;0.95;;;0.70;;
43809;SDS011;29440;48.208;11.162;2023-04-22T07:09:25;2.97;;;0.70;;
43809;SDS011;29440;48.208;11.162;2023-04-22T07:11:51;4.65;;;0.90;;
43809;SDS011;29440;48.208;11.162;2023-04-22T07:14:16;0.80;;;0.60;;
43809;SDS011;29440;48.208;11.162;2023-04-22T07:16:42;1.60;;;0.65;;
43809;SDS011;29440;48.208;11.162;2023-04-22T07:19:07;4.13;;;0.90;;
43809;SDS011;29440;48.208;11.162;2023-04-22T07:21:33;2.38;;;0.52;;
43809;SDS011;29440;48.208;11.162;2023-04-22T07:23:59;1.27;;;0.60;;
43809;SDS011;29440;48.208;11.162;2023-04-22T07:26:24;1.00;;;0.60;;
43809;SDS011;29440;48.208;11.162;2023-04-22T07:28:50;1.50;;;0.60;;
43809;SDS011;29440;48.208;11.162;2023-04-22T07:31:15;2.53;;;0.63;;
43809;SDS011;29440;48.208;11.162;2023-04-22T07:33:41;2.03;;;0.68;;
43809;SDS011;29440;48.208;11.162;2023-04-22T07:36:06;1.55;;;0.70;;
43809;SDS011;29440;48.208;11.162;2023-04-22T07:38:32;1.17;;;0.50;;
43809;SDS011;29440;48.208;11.162;2023-04-22T07:40:58;3.53;;;0.70;;
43809;SDS011;29440;48.208;11.162;2023-04-22T07:43:23;1.02;;;0.50;;
43809;SDS011;29440;48.208;11.162;2023-04-22T07:45:49;1.42;;;0.60;;
43809;SDS011;29440;48.208;11.162;2023-04-22T07:48:15;0.80;;;0.57;;
43809;SDS011;29440;48.208;11.162;2023-04-22T07:50:40;0.98;;;0.70;;
43809;SDS011;29440;48.208;11.162;2023-04-22T07:53:06;1.85;;;0.70;;
43809;SDS011;29440;48.208;11.162;2023-04-22T07:55:32;0.70;;;0.60;;
43809;SDS011;29440;48.208;11.162;2023-04-22T07:57:57;0.70;;;0.50;;
43809;SDS011;29440;48.208;11.162;2023-04-22T08:00:25;1.40;;;0.60;;
43809;SDS011;29440;48.208;11.162;2023-04-22T08:02:50;1.42;;;0.50;;
43809;SDS011;29440;48.208;11.162;2023-04-22T08:05:16;3.45;;;0.60;;
43809;SDS011;29440;48.208;11.162;2023-04-22T08:07:41;0.93;;;0.40;;
43809;SDS011;29440;48.208;11.162;2023-04-22T08:10:07;1.75;;;0.50;;
43809;SDS011;29440;48.208;11.162;2023-04-22T08:12:33;1.23;;;0.45;;
43809;SDS011;29440;48.208;11.162;2023-04-22T08:14:59;0.63;;;0.50;;
43809;SDS011;29440;48.208;11.162;2023-04-22T08:17:24;0.95;;;0.60;;
43809;SDS011;29440;48.208;11.162;2023-04-22T08:19:50;2.13;;;0.50;;
43809;SDS011;29440;48.208;11.162;2023-04-22T08:22:18;2.00;;;0.60;;
43809;SDS011;29440;48.208;11.162;2023-04-22T08:24:43;1.00;;;0.60;;
43809;SDS011;29440;48.208;11.162;2023-04-22T08:27:09;0.95;;;0.75;;
43809;SDS011;29440;48.208;11.162;2023-04-22T08:29:34;2.00;;;0.40;;
43809;SDS011;29440;48.208;11.162;2023-04-22T08:32:01;0.60;;;0.30;;
43809;SDS011;29440;48.208;11.162;2023-04-22T08:34:27;0.65;;;0.40;;
43809;SDS011;29440;48.208;11.162;2023-04-22T08:36:52;0.88;;;0.45;;
43809;SDS011;29440;48.208;11.162;2023-04-22T08:39:18;0.70;;;0.40;;
43809;SDS011;29440;48.208;11.162;2023-04-22T08:41:44;0.60;;;0.40;;
43809;SDS011;29440;48.208;11.162;2023-04-22T08:44:10;0.68;;;0.50;;
43809;SDS011;29440;48.208;11.162;2023-04-22T08:46:37;0.77;;;0.40;;
43809;SDS011;29440;48.208;11.162;2023-04-22T08:49:03;0.52;;;0.40;;
43809;SDS011;29440;48.208;11.162;2023-04-22T08:51:29;0.80;;;0.47;;
43809;SDS011;29440;48.208;11.162;2023-04-22T08:53:57;1.10;;;0.47;;
43809;SDS011;29440;48.208;11.162;2023-04-22T08:56:23;0.90;;;0.40;;
43809;SDS011;29440;48.208;11.162;2023-04-22T08:58:49;0.70;;;0.40;;
43809;SDS011;29440;48.208;11.162;2023-04-22T09:01:15;1.67;;;0.47;;
43809;SDS011;29440;48.208;11.162;2023-04-22T09:03:41;0.98;;;0.40;;
43809;SDS011;29440;48.208;11.162;2023-04-22T09:06:07;0.63;;;0.40;;
43809;SDS011;29440;48.208;11.162;2023-04-22T09:08:35;0.32;;;0.30;;
43809;SDS011;29440;48.208;11.162;2023-04-22T09:11:02;0.93;;;0.40;;
43809;SDS011;29440;48.208;11.162;2023-04-22T09:13:28;0.52;;;0.40;;
43809;SDS011;29440;48.208;11.162;2023-04-22T09:15:54;0.50;;;0.30;;
43809;SDS011;29440;48.208;11.162;2023-04-22T09:18:19;1.15;;;0.30;;
43809;SDS011;29440;48.208;11.162;2023-04-22T09:20:48;0.65;;;0.40;;
43809;SDS011;29440;48.208;11.162;2023-04-22T09:23:18;3.90;;;0.50;;
43809;SDS011;29440;48.208;11.162;2023-04-22T09:25:43;1.70;;;0.52;;
43809;SDS011;29440;48.208;11.162;2023-04-22T09:28:10;1.10;;;0.40;;
43809;SDS011;29440;48.208;11.162;2023-04-22T09:30:42;0.88;;;0.30;;
43809;SDS011;29440;48.208;11.162;2023-04-22T09:33:10;1.58;;;0.43;;
43809;SDS011;29440;48.208;11.162;2023-04-22T09:35:41;1.00;;;0.40;;
43809;SDS011;29440;48.208;11.162;2023-04-22T09:38:07;0.65;;;0.32;;
43809;SDS011;29440;48.208;11.162;2023-04-22T09:40:39;2.25;;;0.45;;
43809;SDS011;29440;48.208;11.162;2023-04-22T09:43:07;0.60;;;0.45;;
43809;SDS011;29440;48.208;11.162;2023-04-22T09:45:40;0.40;;;0.32;;
43809;SDS011;29440;48.208;11.162;2023-04-22T09:48:10;0.60;;;0.40;;
43809;SDS011;29440;48.208;11.162;2023-04-22T09:50:38;0.75;;;0.40;;
43809;SDS011;29440;48.208;11.162;2023-04-22T09:53:08;0.85;;;0.40;;
43809;SDS011;29440;48.208;11.162;2023-04-22T09:55:36;0.60;;;0.40;;
43809;SDS011;29440;48.208;11.162;2023-04-22T09:58:05;0.88;;;0.60;;
43809;SDS011;29440;48.208;11.162;2023-04-22T10:03:30;1.70;;;0.52;;
43809;SDS011;29440;48.208;11.162;2023-04-22T10:05:57;2.63;;;0.40;;
43809;SDS011;29440;48.208;11.162;2023-04-22T10:08:23;0.90;;;0.40;;
43809;SDS011;29440;48.208;11.162;2023-04-22T10:10:48;2.53;;;0.43;;
43809;SDS011;29440;48.208;11.162;2023-04-22T10:13:14;0.70;;;0.50;;
43809;SDS011;29440;48.208;11.162;2023-04-22T10:15:52;0.70;;;0.40;;
43809;SDS011;29440;48.208;11.162;2023-04-22T10:18:20;1.48;;;0.60;;
43809;SDS011;29440;48.208;11.162;2023-04-22T10:20:48;0.80;;;0.45;;
43809;SDS011;29440;48.208;11.162;2023-04-22T10:23:18;1.10;;;0.50;;
43809;SDS011;29440;48.208;11.162;2023-04-22T10:25:52;1.00;;;0.60;;
43809;SDS011;29440;48.208;11.162;2023-04-22T10:28:19;2.17;;;0.50;;
43809;SDS011;29440;48.208;11.162;2023-04-22T10:30:46;0.80;;;0.50;;
43809;SDS011;29440;48.208;11.162;2023-04-22T10:41:14;0.95;;;0.60;;
43809;SDS011;29440;48.208;11.162;2023-04-22T10:48:58;0.57;;;0.35;;
43809;SDS011;29440;48.208;11.162;2023-04-22T10:51:40;1.42;;;0.32;;
43809;SDS011;29440;48.208;11.162;2023-04-22T10:54:06;1.85;;;0.30;;
43809;SDS011;29440;48.208;11.162;2023-04-22T10:57:00;0.40;;;0.30;;
43809;SDS011;29440;48.208;11.162;2023-04-22T11:02:15;0.93;;;0.30;;
43809;SDS011;29440;48.208;11.162;2023-04-22T11:04:51;0.80;;;0.40;;
43809;SDS011;29440;48.208;11.162;2023-04-22T11:07:46;1.65;;;0.60;;
43809;SDS011;29440;48.208;11.162;2023-04-22T11:10:29;0.40;;;0.30;;
43809;SDS011;29440;48.208;11.162;2023-04-22T11:13:00;0.30;;;0.30;;
43809;SDS011;29440;48.208;11.162;2023-04-22T11:15:27;0.60;;;0.30;;
43809;SDS011;29440;48.208;11.162;2023-04-22T11:17:55;0.52;;;0.30;;
43809;SDS011;29440;48.208;11.162;2023-04-22T11:20:22;0.40;;;0.20;;
43809;SDS011;29440;48.208;11.162;2023-04-22T11:22:49;2.28;;;0.32;;
43809;SDS011;29440;48.208;11.162;2023-04-22T11:25:16;0.38;;;0.30;;
43809;SDS011;29440;48.208;11.162;2023-04-22T11:27:42;0.52;;;0.30;;
43809;SDS011;29440;48.208;11.162;2023-04-22T11:30:11;0.88;;;0.30;;
43809;SDS011;29440;48.208;11.162;2023-04-22T11:32:46;0.43;;;0.40;;
43809;SDS011;29440;48.208;11.162;2023-04-22T11:35:19;0.55;;;0.35;;
43809;SDS011;29440;48.208;11.162;2023-04-22T11:37:52;0.40;;;0.30;;
43809;SDS011;29440;48.208;11.162;2023-04-22T11:40:23;2.25;;;0.30;;
43809;SDS011;29440;48.208;11.162;2023-04-22T11:43:00;2.90;;;0.40;;
43809;SDS011;29440;48.208;11.162;2023-04-22T11:45:27;0.60;;;0.43;;
43809;SDS011;29440;48.208;11.162;2023-04-22T11:47:54;0.70;;;0.40;;
43809;SDS011;29440;48.208;11.162;2023-04-22T11:50:21;0.55;;;0.30;;
43809;SDS011;29440;48.208;11.162;2023-04-22T11:52:52;1.20;;;0.85;;
43809;SDS011;29440;48.208;11.162;2023-04-22T11:55:20;1.75;;;0.30;;
43809;SDS011;29440;48.208;11.162;2023-04-22T11:57:52;0.43;;;0.30;;
43809;SDS011;29440;48.208;11.162;2023-04-22T12:00:23;1.60;;;0.40;;
43809;SDS011;29440;48.208;11.162;2023-04-22T12:02:59;1.13;;;0.40;;
43809;SDS011;29440;48.208;11.162;2023-04-22T12:08:05;0.50;;;0.40;;
43809;SDS011;29440;48.208;11.162;2023-04-22T12:10:42;2.95;;;0.32;;
43809;SDS011;29440;48.208;11.162;2023-04-22T12:13:19;0.68;;;0.50;;
43809;SDS011;29440;48.208;11.162;2023-04-22T12:15:58;1.15;;;0.47;;
43809;SDS011;29440;48.208;11.162;2023-04-22T12:21:07;1.25;;;0.40;;
43809;SDS011;29440;48.208;11.162;2023-04-22T12:23:43;0.40;;;0.38;;
43809;SDS011;29440;48.208;11.162;2023-04-22T12:26:10;2.05;;;0.50;;
43809;SDS011;29440;48.208;11.162;2023-04-22T12:28:36;2.88;;;0.45;;
43809;SDS011;29440;48.208;11.162;2023-04-22T12:31:02;0.73;;;0.50;;
43809;SDS011;29440;48.208;11.162;2023-04-22T12:33:28;1.42;;;0.50;;
43809;SDS011;29440;48.208;11.162;2023-04-22T12:35:54;3.60;;;0.68;;
43809;SDS011;29440;48.208;11.162;2023-04-22T12:38:19;0.73;;;0.40;;
43809;SDS011;29440;48.208;11.162;2023-04-22T12:40:45;3.50;;;0.50;;
43809;SDS011;29440;48.208;11.162;2023-04-22T12:43:10;1.52;;;0.50;;
43809;SDS011;29440;48.208;11.162;2023-04-22T12:45:36;0.93;;;0.40;;
43809;SDS011;29440;48.208;11.162;2023-04-22T12:48:02;0.80;;;0.50;;
43809;SDS011;29440;48.208;11.162;2023-04-22T12:50:27;3.85;;;0.70;;
43809;SDS011;29440;48.208;11.162;2023-04-22T12:52:53;1.08;;;0.80;;
43809;SDS011;29440;48.208;11.162;2023-04-22T12:55:19;3.53;;;0.70;;
43809;SDS011;29440;48.208;11.162;2023-04-22T12:57:46;1.17;;;0.70;;
43809;SDS011;29440;48.208;11.162;2023-04-22T13:00:15;1.95;;;0.85;;
43809;SDS011;29440;48.208;11.162;2023-04-22T13:02:45;1.67;;;0.70;;
43809;SDS011;29440;48.208;11.162;2023-04-22T13:05:11;3.20;;;0.98;;
43809;SDS011;29440;48.208;11.162;2023-04-22T13:07:38;2.50;;;0.80;;
43809;SDS011;29440;48.208;11.162;2023-04-22T13:10:06;1.65;;;0.70;;
43809;SDS011;29440;48.208;11.162;2023-04-22T13:12:32;3.22;;;0.93;;
43809;SDS011;29440;48.208;11.162;2023-04-22T13:14:59;2.55;;;0.60;;
43809;SDS011;29440;48.208;11.162;2023-04-22T13:17:25;2.75;;;0.60;;
43809;SDS011;29440;48.208;11.162;2023-04-22T13:19:50;2.17;;;0.70;;
43809;SDS011;29440;48.208;11.162;2023-04-22T13:22:16;1.02;;;0.60;;
43809;SDS011;29440;48.208;11.162;2023-04-22T13:24:42;2.72;;;0.73;;
43809;SDS011;29440;48.208;11.162;2023-04-22T13:27:08;1.15;;;0.60;;
43809;SDS011;29440;48.208;11.162;2023-04-22T13:29:35;1.90;;;0.73;;
43809;SDS011;29440;48.208;11.162;2023-04-22T13:32:19;1.15;;;0.57;;
43809;SDS011;29440;48.208;11.162;2023-04-22T13:34:46;3.88;;;0.60;;
43809;SDS011;29440;48.208;11.162;2023-04-22T13:37:12;1.98;;;0.70;;
43809;SDS011;29440;48.208;11.162;2023-04-22T13:39:43;5.60;;;0.93;;
43809;SDS011;29440;48.208;11.162;2023-04-22T13:42:08;1.42;;;0.70;;
43809;SDS011;29440;48.208;11.162;2023-04-22T13:44:34;0.75;;;0.60;;
43809;SDS011;29440;48.208;11.162;2023-04-22T13:47:00;1.63;;;0.80;;
43809;SDS011;29440;48.208;11.162;2023-04-22T13:49:25;1.95;;;0.73;;
43809;SDS011;29440;48.208;11.162;2023-04-22T13:51:51;0.98;;;0.60;;
43809;SDS011;29440;48.208;11.162;2023-04-22T13:54:17;1.63;;;0.80;;
43809;SDS011;29440;48.208;11.162;2023-04-22T13:56:43;1.70;;;0.85;;
43809;SDS011;29440;48.208;11.162;2023-04-22T13:59:08;1.67;;;1.08;;
43809;SDS011;29440;48.208;11.162;2023-04-22T14:01:34;2.85;;;1.20;;
43809;SDS011;29440;48.208;11.162;2023-04-22T14:04:01;4.30;;;0.90;;
43809;SDS011;29440;48.208;11.162;2023-04-22T14:06:27;3.53;;;0.90;;
43809;SDS011;29440;48.208;11.162;2023-04-22T14:08:52;4.90;;;1.13;;
43809;SDS011;29440;48.208;11.162;2023-04-22T14:11:18;1.70;;;0.82;;
43809;SDS011;29440;48.208;11.162;2023-04-22T14:13:44;2.17;;;1.20;;
43809;SDS011;29440;48.208;11.162;2023-04-22T14:16:10;2.58;;;1.10;;
43809;SDS011;29440;48.208;11.162;2023-04-22T14:18:39;3.85;;;1.00;;
43809;SDS011;29440;48.208;11.162;2023-04-22T14:21:06;2.08;;;0.80;;
43809;SDS011;29440;48.208;11.162;2023-04-22T14:23:35;2.35;;;0.85;;
43809;SDS011;29440;48.208;11.162;2023-04-22T14:26:02;2.50;;;0.70;;
43809;SDS011;29440;48.208;11.162;2023-04-22T14:28:29;3.08;;;1.00;;
43809;SDS011;29440;48.208;11.162;2023-04-22T14:30:55;4.20;;;0.95;;
43809;SDS011;29440;48.208;11.162;2023-04-22T14:33:21;0.90;;;0.70;;
43809;SDS011;29440;48.208;11.162;2023-04-22T14:35:48;1.08;;;0.60;;
43809;SDS011;29440;48.208;11.162;2023-04-22T14:38:15;2.45;;;0.70;;
43809;SDS011;29440;48.208;11.162;2023-04-22T14:40:41;1.27;;;0.70;;
43809;SDS011;29440;48.208;11.162;2023-04-22T14:43:07;1.35;;;0.70;;
43809;SDS011;29440;48.208;11.162;2023-04-22T14:45:32;1.85;;;0.80;;
43809;SDS011;29440;48.208;11.162;2023-04-22T14:47:58;1.27;;;0.50;;
43809;SDS011;29440;48.208;11.162;2023-04-22T14:50:24;4.30;;;0.90;;
43809;SDS011;29440;48.208;11.162;2023-04-22T14:52:51;1.67;;;0.60;;
43809;SDS011;29440;48.208;11.162;2023-04-22T14:55:17;1.10;;;0.60;;